»·PEaware :: TIA250 KAVL-KEYW

TIA250 :: KAVL-KEYW

FLIGHT INFORMATION

Flight Status: Arrived
Operator: Unknown
More flights by this operator :: More flights under this callsign
Pilot: Andrew J. (13363)
Aircraft: MCDONNELL-DOUGLAS MD-88
(MD88)
More flights by this aircraft type
Origin: KAVL Asheville Regl
United States
Destination: KEYW Key West Intl
United States
More flights between these airports :: More routes between these airports
Route: SUG IRQ LAL MARCI
File this flight plan on PilotEdge
Remarks: RMK / SIMBRIEF
Altitude:
(Current/Filed)
36,000ft
Speed:
(Current/Filed)
434kts
Departed: 30-Sep-20 09:21 PM
Arrived: 30-Sep-20 11:01 PM
Distance/Time
Traveled:
654nm/1:40
Distance/Time
To Go:
Arrived

Flight Plot

Page will automatically refresh every two minutes.

Flight plan parsing failed; only flown route is shown


Map Options




Map Legend


Flown Route
Filed Route
Departure Airport
Arrival Airport
Navaid (VOR, NDB)
Fix

Horizontal Profiles

Position Reports

Time Latitude Longitude Heading Altitude Ground
Speed
30-Sep-20 21:20 34.764899 -82.383023 173 25443ft 466kts
30-Sep-20 21:21 34.636178 -82.356124 174 28079ft 463kts
30-Sep-20 21:22 34.517844 -82.331404 175 30553ft 453kts
30-Sep-20 21:23 34.386484 -82.303978 175 32860ft 447kts
30-Sep-20 21:24 34.264853 -82.278580 176 34838ft 440kts
30-Sep-20 21:25 34.142761 -82.253087 175 36010ft 447kts
30-Sep-20 21:26 34.017935 -82.227008 175 36105ft 452kts
30-Sep-20 21:27 33.893283 -82.200963 175 36107ft 450kts
30-Sep-20 21:28 33.769442 -82.175086 175 36117ft 450kts
30-Sep-20 21:29 33.645915 -82.159431 185 36117ft 443kts
30-Sep-20 21:30 33.522998 -82.157118 184 36117ft 443kts
30-Sep-20 21:30 33.420105 -82.154502 184 36117ft 444kts
30-Sep-20 21:32 33.276148 -82.150789 184 36111ft 444kts
30-Sep-20 21:32 33.173874 -82.148155 184 36108ft 443kts
30-Sep-20 21:33 33.050682 -82.145023 183 36109ft 444kts
30-Sep-20 21:35 32.906271 -82.141276 181 36123ft 446kts
30-Sep-20 21:35 32.803039 -82.138596 181 36142ft 446kts
30-Sep-20 21:36 32.679145 -82.135400 181 36141ft 446kts
30-Sep-20 21:37 32.561817 -82.132372 181 36138ft 446kts
30-Sep-20 21:38 32.445430 -82.129370 181 36137ft 446kts
30-Sep-20 21:39 32.313666 -82.125970 181 36136ft 446kts
30-Sep-20 21:40 32.189638 -82.122769 181 36135ft 446kts
30-Sep-20 21:41 32.065864 -82.119577 181 36135ft 446kts
30-Sep-20 21:42 31.941446 -82.116361 181 36135ft 446kts
30-Sep-20 21:43 31.817579 -82.113165 181 36139ft 446kts
30-Sep-20 21:44 31.693639 -82.109962 181 36145ft 446kts
30-Sep-20 21:45 31.569818 -82.106763 181 36145ft 446kts
30-Sep-20 21:46 31.446929 -82.103585 181 36143ft 441kts
30-Sep-20 21:47 31.324549 -82.100424 181 36145ft 440kts
30-Sep-20 21:48 31.202827 -82.097278 181 36145ft 439kts
30-Sep-20 21:49 31.080467 -82.094117 181 36144ft 440kts
30-Sep-20 21:50 30.958869 -82.090928 182 36143ft 433kts
30-Sep-20 21:51 30.840011 -82.087878 184 36144ft 424kts
30-Sep-20 21:52 30.721716 -82.084841 184 36131ft 424kts
30-Sep-20 21:53 30.603402 -82.081788 183 36145ft 425kts
30-Sep-20 21:54 30.485165 -82.078728 183 36147ft 425kts
30-Sep-20 21:55 30.367158 -82.075676 183 36135ft 424kts
30-Sep-20 21:56 30.249477 -82.072631 184 36135ft 424kts
30-Sep-20 21:57 30.131499 -82.069586 183 36134ft 424kts
30-Sep-20 21:58 30.013104 -82.066519 183 36138ft 425kts
30-Sep-20 21:59 29.895288 -82.063473 183 36150ft 425kts
30-Sep-20 22:00 29.776532 -82.060400 183 36156ft 425kts
30-Sep-20 22:01 29.658537 -82.057342 183 36156ft 424kts
30-Sep-20 22:02 29.540758 -82.054296 184 36150ft 424kts
30-Sep-20 22:03 29.422812 -82.051246 184 36136ft 424kts
30-Sep-20 22:04 29.304911 -82.048198 183 36134ft 423kts
30-Sep-20 22:05 29.187043 -82.045147 183 36134ft 424kts
30-Sep-20 22:06 29.069162 -82.042100 183 36132ft 425kts
30-Sep-20 22:07 28.950678 -82.039031 184 36132ft 429kts
30-Sep-20 22:08 28.831152 -82.035937 184 36131ft 429kts
30-Sep-20 22:09 28.712135 -82.032854 184 36128ft 429kts
30-Sep-20 22:10 28.592801 -82.029766 184 36128ft 429kts
30-Sep-20 22:11 28.473513 -82.026677 184 36128ft 429kts
30-Sep-20 22:12 28.353781 -82.023579 184 36126ft 429kts
30-Sep-20 22:13 28.234729 -82.020498 184 36123ft 429kts
30-Sep-20 22:16 27.879392 -82.002121 179 36120ft 433kts
30-Sep-20 22:17 27.759476 -81.988902 179 36119ft 432kts
30-Sep-20 22:18 27.639490 -81.975741 180 36117ft 433kts
30-Sep-20 22:19 27.519938 -81.962634 180 36115ft 433kts
30-Sep-20 22:20 27.400079 -81.949496 179 36099ft 432kts
30-Sep-20 22:21 27.280060 -81.936332 180 36090ft 432kts
30-Sep-20 22:22 27.160583 -81.923232 179 36091ft 432kts
30-Sep-20 22:23 27.040771 -81.910090 179 36089ft 432kts
30-Sep-20 22:24 26.920227 -81.896930 177 36090ft 439kts
30-Sep-20 22:25 26.797986 -81.883473 177 36083ft 443kts
30-Sep-20 22:45 24.743486 -81.868561 221 7044ft 252kts
30-Sep-20 22:46 24.694370 -81.915315 220 5463ft 220kts
30-Sep-20 22:47 24.649320 -81.957811 220 4159ft 216kts
30-Sep-20 22:48 24.594616 -81.969363 176 3139ft 198kts
30-Sep-20 22:49 24.552625 -81.947796 91 2001ft 176kts
30-Sep-20 22:50 24.554186 -81.897284 87 1509ft 152kts
30-Sep-20 22:51 24.555024 -81.850890 88 1520ft 152kts
30-Sep-20 22:52 24.555597 -81.806696 88 731ft 124kts
30-Sep-20 22:53 24.556079 -81.777325 89 211ft 117kts
30-Sep-20 22:54 24.556320 -81.740178 89 950ft 142kts
30-Sep-20 22:55 24.580209 -81.709371 9 2493ft 148kts
30-Sep-20 22:56 24.605969 -81.740983 279 3374ft 171kts
30-Sep-20 22:57 24.598699 -81.793945 228 2881ft 181kts
30-Sep-20 22:58 24.558507 -81.798359 129 1077ft 148kts
30-Sep-20 22:59 24.556109 -81.760186 88 7ft 90kts
30-Sep-20 23:00 24.556157 -81.753149 89 6ft 4kts
30-Sep-20 23:01 24.555287 -81.752713 220 6ft 6kts
30-Sep-20 23:02 24.554353 -81.754872 277 6ft 9kts
30-Sep-20 23:03 24.554943 -81.755251 266 6ft 0kts
30-Sep-20 23:04 24.554752 -81.755516 226 6ft 0kts
30-Sep-20 23:05 24.556029 -81.767015 88 17ft 117kts
30-Sep-20 23:06 24.554752 -81.755516 226 6ft 0kts
30-Sep-20 23:07 24.554752 -81.755516 226 6ft 0kts
30-Sep-20 23:08 24.554752 -81.755516 226 6ft 0kts

Navigation Log

Ident Type
Flight plan parsing failed, navigation log unavailable